createdAt,value
2023-03-05T00:01:38.491Z,78.38
2023-03-05T00:04:08.409Z,78.04
2023-03-05T00:06:34.875Z,79.02
2023-03-05T00:09:02.187Z,78.62
2023-03-05T00:11:33.579Z,79.06
2023-03-05T00:14:03.539Z,78.89
2023-03-05T00:16:30.766Z,79.34
2023-03-05T00:18:58.939Z,79.28
2023-03-05T00:21:34.827Z,79.15
2023-03-05T00:24:03.663Z,79.12
2023-03-05T00:26:31.484Z,78.46
2023-03-05T00:28:58.856Z,78.23
2023-03-05T00:31:30.495Z,78.86
2023-03-05T00:33:59.834Z,78.41
2023-03-05T00:36:27.448Z,78.06
2023-03-05T00:38:54.531Z,78.28
2023-03-05T00:41:21.616Z,78.36
2023-03-05T00:43:49.020Z,78.13
2023-03-05T00:46:16.311Z,77.76
2023-03-05T00:48:43.141Z,77.91
2023-03-05T00:51:09.626Z,77.59
2023-03-05T00:53:36.377Z,77.52
2023-03-05T00:56:04.019Z,77.55
2023-03-05T00:58:30.539Z,77.74
2023-03-05T01:01:01.445Z,77.48
2023-03-05T01:03:28.133Z,77.88
2023-03-05T01:05:54.787Z,77.66
2023-03-05T01:08:21.338Z,77.40
2023-03-05T01:10:48.351Z,77.56
2023-03-05T01:13:14.899Z,77.69
2023-03-05T01:15:41.739Z,78.11
2023-03-05T01:18:08.332Z,77.97
2023-03-05T01:20:35.186Z,78.55
2023-03-05T01:23:01.893Z,78.16
2023-03-05T01:25:28.714Z,77.68
2023-03-05T01:27:55.176Z,77.82
2023-03-05T01:30:21.677Z,77.90
2023-03-05T01:32:48.138Z,77.77
2023-03-05T01:35:20.456Z,77.74
2023-03-05T01:37:47.489Z,77.92
2023-03-05T01:40:17.263Z,77.79
2023-03-05T01:42:49.133Z,77.71
2023-03-05T01:45:18.091Z,78.38
2023-03-05T01:47:45.541Z,78.70
2023-03-05T01:50:16.903Z,78.47
2023-03-05T01:52:49.653Z,78.29
2023-03-05T01:55:27.829Z,79.03
2023-03-05T01:58:00.500Z,78.57
2023-03-05T02:00:34.071Z,79.18
2023-03-05T02:03:05.216Z,78.77
2023-03-05T02:05:34.259Z,79.26
2023-03-05T02:08:03.866Z,79.21
2023-03-05T02:10:51.656Z,79.76
2023-03-05T02:13:22.758Z,79.85
2023-03-05T02:15:50.891Z,80.37
2023-03-05T02:18:18.768Z,79.79
2023-03-05T02:20:57.287Z,79.77
2023-03-05T02:23:26.625Z,80.69
2023-03-05T02:25:53.560Z,80.41
2023-03-05T02:28:26.202Z,80.67
2023-03-05T02:30:52.704Z,80.35
2023-03-05T02:33:20.313Z,80.44
2023-03-05T02:35:47.008Z,81.07
2023-03-05T02:38:15.561Z,80.46
2023-03-05T02:40:42.615Z,80.64
2023-03-05T02:43:10.028Z,80.27
2023-03-05T02:45:36.823Z,80.40
2023-03-05T02:48:03.421Z,80.28
2023-03-05T02:50:31.588Z,80.71
2023-03-05T02:52:58.146Z,80.84
2023-03-05T02:55:24.593Z,80.40
2023-03-05T02:57:51.036Z,80.13
2023-03-05T03:00:17.983Z,80.58
2023-03-05T03:02:44.592Z,81.34
2023-03-05T03:05:11.119Z,81.13
2023-03-05T03:07:37.590Z,80.37
2023-03-05T03:10:05.484Z,79.96
2023-03-05T03:12:31.975Z,80.84
2023-03-05T03:15:00.852Z,80.52
2023-03-05T03:17:27.556Z,80.28
2023-03-05T03:19:53.965Z,80.08
2023-03-05T03:22:20.498Z,80.08
2023-03-05T03:24:46.916Z,80.08
2023-03-05T03:27:13.439Z,80.03
2023-03-05T03:29:39.875Z,79.37
2023-03-05T03:32:08.189Z,79.43
2023-03-05T03:34:34.677Z,79.58
2023-03-05T03:37:01.574Z,79.35
2023-03-05T03:39:27.973Z,79.46
2023-03-05T03:41:54.472Z,79.61
2023-03-05T03:44:21.848Z,79.50
2023-03-05T03:46:49.982Z,79.45
2023-03-05T03:49:20.894Z,79.68
2023-03-05T03:51:47.866Z,79.61
2023-03-05T03:54:15.865Z,79.63
2023-03-05T03:56:42.488Z,79.61
2023-03-05T03:59:09.574Z,80.19
2023-03-05T04:01:36.133Z,80.20
2023-03-05T04:04:03.867Z,80.81
2023-03-05T04:06:30.401Z,80.93
2023-03-05T04:08:56.959Z,81.01
2023-03-05T04:11:23.399Z,81.35
2023-03-05T04:13:49.890Z,81.29
2023-03-05T04:16:17.016Z,80.51
2023-03-05T04:18:43.689Z,80.54
2023-03-05T04:21:10.333Z,81.02
2023-03-05T04:23:37.411Z,82.40
2023-03-05T04:26:04.056Z,82.50
2023-03-05T04:28:30.938Z,81.57
2023-03-05T04:30:57.455Z,81.43
2023-03-05T04:33:24.237Z,81.28
2023-03-05T04:35:51.185Z,82.07
2023-03-05T04:38:17.899Z,81.90
2023-03-05T04:40:45.365Z,81.86
2023-03-05T04:43:11.937Z,81.76
2023-03-05T04:45:42.781Z,82.98
2023-03-05T04:48:10.711Z,81.91
2023-03-05T04:50:37.360Z,82.76
2023-03-05T04:53:04.270Z,81.97
2023-03-05T04:55:31.296Z,82.59
2023-03-05T04:57:57.835Z,82.83
2023-03-05T05:00:24.786Z,82.42
2023-03-05T05:02:52.998Z,82.04
2023-03-05T05:05:23.073Z,82.48
2023-03-05T05:07:49.978Z,82.52
2023-03-05T05:10:17.209Z,82.61
2023-03-05T05:12:43.666Z,82.96
2023-03-05T05:15:12.319Z,82.22
2023-03-05T05:17:39.713Z,82.29
2023-03-05T05:20:07.766Z,83.16
2023-03-05T05:22:34.979Z,82.26
2023-03-05T05:25:02.034Z,82.16
2023-03-05T05:27:28.560Z,83.33
2023-03-05T05:29:55.226Z,82.61
2023-03-05T05:32:24.128Z,83.01
2023-03-05T05:34:58.280Z,83.03
2023-03-05T05:37:26.073Z,82.75
2023-03-05T05:39:52.850Z,83.10
2023-03-05T05:42:22.063Z,82.14
2023-03-05T05:44:49.541Z,82.87
2023-03-05T05:47:17.478Z,82.92
2023-03-05T05:49:43.931Z,82.94
2023-03-05T05:52:10.523Z,83.86
2023-03-05T05:54:37.011Z,84.67
2023-03-05T05:57:03.684Z,84.77
2023-03-05T05:59:30.140Z,85.33
2023-03-05T06:01:56.584Z,86.07
2023-03-05T06:04:23.277Z,85.97
2023-03-05T06:06:49.781Z,85.92
2023-03-05T06:09:16.416Z,84.67
2023-03-05T06:11:42.893Z,84.85
2023-03-05T06:14:11.700Z,86.08
2023-03-05T06:16:38.859Z,85.74
2023-03-05T06:19:05.677Z,85.12
2023-03-05T06:21:32.890Z,84.85
2023-03-05T06:23:59.452Z,84.31
2023-03-05T06:26:26.253Z,84.01
2023-03-05T06:28:53.510Z,85.45
2023-03-05T06:31:27.952Z,85.97
2023-03-05T06:33:56.321Z,86.25
2023-03-05T06:36:24.282Z,86.52
2023-03-05T06:38:53.414Z,87.20
2023-03-05T06:41:31.266Z,86.75
2023-03-05T06:44:00.037Z,85.96
2023-03-05T06:46:31.206Z,85.32
2023-03-05T06:49:00.114Z,84.44
2023-03-05T06:51:32.243Z,84.69
2023-03-05T06:54:07.785Z,84.28
2023-03-05T06:56:39.394Z,83.99
2023-03-05T06:59:06.671Z,83.69
2023-03-05T07:01:33.910Z,83.93
2023-03-05T07:04:02.883Z,83.39
2023-03-05T07:06:32.290Z,83.16
2023-03-05T07:09:01.591Z,82.74
2023-03-05T07:11:28.764Z,83.11
2023-03-05T07:13:55.614Z,83.70
2023-03-05T07:16:28.155Z,84.24
2023-03-05T07:18:56.299Z,84.68
2023-03-05T07:21:25.716Z,85.17
2023-03-05T07:23:59.246Z,85.30
2023-03-05T07:26:26.886Z,85.08
2023-03-05T07:28:54.047Z,84.79
2023-03-05T07:31:26.994Z,85.47
2023-03-05T07:33:53.961Z,85.05
2023-03-05T07:36:20.476Z,84.31
2023-03-05T07:38:47.016Z,84.96
2023-03-05T07:41:19.798Z,85.34
2023-03-05T07:43:48.235Z,85.29
2023-03-05T07:46:18.178Z,85.86
2023-03-05T07:48:45.421Z,85.22
2023-03-05T07:51:17.511Z,86.03
2023-03-05T07:53:45.306Z,86.91
2023-03-05T07:56:12.015Z,86.48
2023-03-05T07:58:38.782Z,86.06
2023-03-05T08:01:13.925Z,86.99
2023-03-05T08:03:41.796Z,86.79
2023-03-05T08:06:10.108Z,86.58
2023-03-05T08:08:36.651Z,86.48
2023-03-05T08:11:11.948Z,85.96
2023-03-05T08:13:39.241Z,86.52
2023-03-05T08:16:13.526Z,85.86
2023-03-05T08:18:40.375Z,86.09
2023-03-05T08:21:07.425Z,86.08
2023-03-05T08:23:34.559Z,86.09
2023-03-05T08:26:00.988Z,85.52
2023-03-05T08:28:27.459Z,85.47
2023-03-05T08:30:54.036Z,84.99
2023-03-05T08:33:20.803Z,85.41
2023-03-05T08:35:47.380Z,84.91
2023-03-05T08:38:13.909Z,84.37
2023-03-05T08:40:40.402Z,84.31
2023-03-05T08:43:07.344Z,84.07
2023-03-05T08:45:33.986Z,83.37
2023-03-05T08:48:00.446Z,82.75
2023-03-05T08:50:27.147Z,82.25
2023-03-05T08:52:53.673Z,81.50
2023-03-05T08:55:20.228Z,80.91
2023-03-05T08:57:46.752Z,80.13
2023-03-05T09:00:13.891Z,79.41
2023-03-05T09:02:40.538Z,79.56
2023-03-05T09:05:07.743Z,79.52
2023-03-05T09:07:34.289Z,79.41
2023-03-05T09:10:00.849Z,78.68
2023-03-05T09:12:27.283Z,79.70
2023-03-05T09:14:57.208Z,82.15
2023-03-05T09:17:24.164Z,81.91
2023-03-05T09:19:50.643Z,82.08
2023-03-05T09:22:17.228Z,81.99
2023-03-05T09:24:44.097Z,81.63
2023-03-05T09:27:10.753Z,82.33
2023-03-05T09:29:37.417Z,82.46
2023-03-05T09:32:04.008Z,83.90
2023-03-05T09:34:30.683Z,84.45
2023-03-05T09:36:57.193Z,84.83
2023-03-05T09:39:23.642Z,84.71
2023-03-05T09:41:59.144Z,84.91
2023-03-05T09:44:28.653Z,85.51
2023-03-05T09:47:32.870Z,84.82
2023-03-05T09:50:11.145Z,84.62
2023-03-05T09:52:51.725Z,84.04
2023-03-05T09:55:40.953Z,84.14
2023-03-05T09:58:38.807Z,83.91
2023-03-05T10:01:18.649Z,84.35
2023-03-05T10:03:57.542Z,84.92
2023-03-05T10:06:28.968Z,84.46
2023-03-05T10:09:12.766Z,84.47
2023-03-05T10:12:00.737Z,84.14
2023-03-05T10:14:45.461Z,83.87
2023-03-05T10:17:44.729Z,84.27
2023-03-05T10:20:29.408Z,84.75
2023-03-05T10:23:08.362Z,84.26
2023-03-05T10:25:40.631Z,84.03
2023-03-05T10:28:17.938Z,83.77
2023-03-05T10:31:06.506Z,84.19
2023-03-05T10:33:55.095Z,84.18
2023-03-05T10:36:45.696Z,83.97
2023-03-05T10:39:21.435Z,83.40
2023-03-05T10:42:25.613Z,83.46
2023-03-05T10:45:00.711Z,83.79
2023-03-05T10:47:36.537Z,84.08
2023-03-05T10:50:16.656Z,85.56
2023-03-05T10:52:48.555Z,85.90
2023-03-05T10:55:18.538Z,86.07
2023-03-05T10:57:45.349Z,85.76
2023-03-05T11:00:25.428Z,86.24
2023-03-05T11:03:08.353Z,87.27
2023-03-05T11:06:02.513Z,86.54
2023-03-05T11:08:36.266Z,86.25
2023-03-05T11:11:10.499Z,85.46
2023-03-05T11:13:59.628Z,84.82
2023-03-05T11:16:47.585Z,83.15
2023-03-05T11:19:13.953Z,82.51
2023-03-05T11:21:41.836Z,82.15
2023-03-05T11:24:19.312Z,82.02
2023-03-05T11:26:51.729Z,81.15
2023-03-05T11:29:24.912Z,81.10
2023-03-05T11:31:53.042Z,79.78
2023-03-05T11:34:19.440Z,79.76
2023-03-05T11:36:55.560Z,79.69
2023-03-05T11:39:24.334Z,79.67
2023-03-05T11:42:15.316Z,79.39
2023-03-05T11:44:54.886Z,78.15
2023-03-05T11:47:43.771Z,77.26
2023-03-05T11:50:16.789Z,77.26
2023-03-05T11:52:54.704Z,77.65
2023-03-05T11:55:29.432Z,77.61
2023-03-05T11:58:32.140Z,77.66
2023-03-05T12:00:59.917Z,77.70
2023-03-05T12:03:33.210Z,76.99
2023-03-05T12:06:14.071Z,77.72
2023-03-05T12:08:45.073Z,77.58
2023-03-05T12:11:26.555Z,76.79
2023-03-05T12:14:19.282Z,76.87
2023-03-05T12:16:52.755Z,77.77
2023-03-05T12:19:34.692Z,77.72
2023-03-05T12:22:02.231Z,77.55
2023-03-05T12:24:28.745Z,76.62
2023-03-05T12:27:03.987Z,77.43
2023-03-05T12:29:33.922Z,77.58
2023-03-05T12:32:01.652Z,77.60
2023-03-05T12:34:40.566Z,76.97
2023-03-05T12:37:20.518Z,77.48
2023-03-05T12:39:52.600Z,77.50
2023-03-05T12:42:28.282Z,76.53
2023-03-05T12:45:10.094Z,76.07
2023-03-05T12:47:40.852Z,76.73
2023-03-05T12:50:26.347Z,76.63
2023-03-05T12:53:11.814Z,76.50
2023-03-05T12:55:55.786Z,75.57
2023-03-05T12:58:28.412Z,76.18
2023-03-05T13:01:04.175Z,74.81
2023-03-05T13:03:36.993Z,73.96
2023-03-05T13:06:06.614Z,74.14
2023-03-05T13:08:36.136Z,74.17
2023-03-05T13:11:20.772Z,73.73
2023-03-05T13:13:48.474Z,73.93
2023-03-05T13:16:47.555Z,74.78
2023-03-05T13:19:18.054Z,73.20
2023-03-05T13:21:44.656Z,72.94
2023-03-05T13:24:18.508Z,72.85
2023-03-05T13:26:46.106Z,73.40
2023-03-05T13:29:28.233Z,74.80
2023-03-05T13:32:02.174Z,75.99
2023-03-05T13:34:46.806Z,76.26
2023-03-05T13:37:22.447Z,76.44
2023-03-05T13:40:01.924Z,76.27
2023-03-05T13:42:34.591Z,76.54
2023-03-05T13:45:28.925Z,75.88
2023-03-05T13:48:03.869Z,76.41
2023-03-05T13:50:39.113Z,76.79
2023-03-05T13:53:29.071Z,77.76
2023-03-05T13:56:05.220Z,78.53
2023-03-05T13:58:53.679Z,78.58
2023-03-05T14:01:26.265Z,79.45
2023-03-05T14:03:57.111Z,79.52
2023-03-05T14:06:25.794Z,81.21
2023-03-05T14:08:55.248Z,81.12
2023-03-05T14:11:23.137Z,80.51
2023-03-05T14:14:02.467Z,80.91
2023-03-05T14:16:33.308Z,81.30
2023-03-05T14:19:02.509Z,80.96
2023-03-05T14:21:50.248Z,80.89
2023-03-05T14:24:28.292Z,81.91
2023-03-05T14:26:56.802Z,82.87
2023-03-05T14:29:26.325Z,82.57
2023-03-05T14:31:57.520Z,82.53
2023-03-05T14:34:31.557Z,82.56
2023-03-05T14:37:01.064Z,82.00
2023-03-05T14:39:59.539Z,82.89
2023-03-05T14:42:33.384Z,82.29
2023-03-05T14:45:12.261Z,81.93
2023-03-05T14:47:38.992Z,81.93
2023-03-05T14:50:07.436Z,81.35
2023-03-05T14:52:34.898Z,81.09
2023-03-05T14:55:01.802Z,79.55
2023-03-05T14:57:31.283Z,78.17
2023-03-05T14:59:57.832Z,77.98
2023-03-05T15:02:26.968Z,77.67
2023-03-05T15:04:53.559Z,77.82
2023-03-05T15:07:29.097Z,77.69
2023-03-05T15:09:56.642Z,77.49
2023-03-05T15:12:24.776Z,77.33
2023-03-05T15:14:56.286Z,77.48
2023-03-05T15:17:31.920Z,77.37
2023-03-05T15:19:58.438Z,77.12
2023-03-05T15:22:25.085Z,76.38
2023-03-05T15:24:51.642Z,76.61
2023-03-05T15:27:18.355Z,77.29
2023-03-05T15:29:44.826Z,76.45
2023-03-05T15:32:11.404Z,76.54
2023-03-05T15:34:38.125Z,76.37
2023-03-05T15:37:05.200Z,76.60
2023-03-05T15:39:32.366Z,76.76
2023-03-05T15:41:58.937Z,77.00
2023-03-05T15:44:25.885Z,76.82
2023-03-05T15:46:52.654Z,77.07
2023-03-05T15:49:19.853Z,77.22
2023-03-05T15:51:46.540Z,77.72
2023-03-05T15:54:13.214Z,77.40
2023-03-05T15:56:41.984Z,77.55
2023-03-05T15:59:10.115Z,77.53
2023-03-05T16:01:38.066Z,77.88
2023-03-05T16:04:05.561Z,77.98
2023-03-05T16:06:33.883Z,79.01
2023-03-05T16:09:04.370Z,80.12
2023-03-05T16:11:37.909Z,80.58
2023-03-05T16:14:08.779Z,80.88
2023-03-05T16:16:36.094Z,81.04
2023-03-05T16:19:06.601Z,80.50
2023-03-05T16:21:33.211Z,80.05
2023-03-05T16:23:59.872Z,79.62
2023-03-05T16:26:26.420Z,80.18
2023-03-05T16:28:52.956Z,80.59
2023-03-05T16:31:19.543Z,80.55
2023-03-05T16:33:46.141Z,80.93
2023-03-05T16:36:22.521Z,80.20
2023-03-05T16:38:51.016Z,80.30
2023-03-05T16:41:18.164Z,79.99
2023-03-05T16:43:45.539Z,79.96
2023-03-05T16:46:14.303Z,80.05
2023-03-05T16:48:42.760Z,80.48
2023-03-05T16:51:10.906Z,80.82
2023-03-05T16:53:38.516Z,80.21
2023-03-05T16:56:07.186Z,79.90
2023-03-05T16:58:36.326Z,79.86
2023-03-05T17:01:03.002Z,80.36
2023-03-05T17:03:34.224Z,80.48
2023-03-05T17:06:00.771Z,80.47
2023-03-05T17:08:27.579Z,81.18
2023-03-05T17:10:54.124Z,81.68
2023-03-05T17:13:20.630Z,81.49
2023-03-05T17:15:47.092Z,81.45
2023-03-05T17:18:13.775Z,81.46
2023-03-05T17:20:40.788Z,81.93
2023-03-05T17:23:07.451Z,81.56
2023-03-05T17:25:34.105Z,82.06
2023-03-05T17:28:00.561Z,81.98
2023-03-05T17:30:27.200Z,82.28
2023-03-05T17:32:54.174Z,82.34
2023-03-05T17:35:22.421Z,82.26
2023-03-05T17:37:50.435Z,82.55
2023-03-05T17:40:17.833Z,82.51
2023-03-05T17:42:44.545Z,81.84
2023-03-05T17:45:11.646Z,82.44
2023-03-05T17:47:38.322Z,82.98
2023-03-05T17:50:07.378Z,83.60
2023-03-05T17:52:39.234Z,83.19
2023-03-05T17:55:10.647Z,83.70
2023-03-05T17:57:41.554Z,83.60
2023-03-05T18:00:32.643Z,83.75
2023-03-05T18:02:59.958Z,83.67
2023-03-05T18:05:27.659Z,84.43
2023-03-05T18:07:55.623Z,84.85
2023-03-05T18:10:24.620Z,84.50
2023-03-05T18:12:52.257Z,84.52
2023-03-05T18:15:21.085Z,84.39
2023-03-05T18:17:48.042Z,84.04
2023-03-05T18:20:36.159Z,84.13
2023-03-05T18:23:04.628Z,84.68
2023-03-05T18:25:31.942Z,84.48
2023-03-05T18:28:00.958Z,84.70
2023-03-05T18:30:28.226Z,85.15
2023-03-05T18:32:55.433Z,85.61
2023-03-05T18:35:22.933Z,85.43
2023-03-05T18:37:49.584Z,86.01
2023-03-05T18:40:19.745Z,86.36
2023-03-05T18:42:46.726Z,86.44
2023-03-05T18:45:15.786Z,86.87
2023-03-05T18:47:43.316Z,87.06
2023-03-05T18:50:15.562Z,87.46
2023-03-05T18:52:43.039Z,88.21
2023-03-05T18:55:36.630Z,88.10
2023-03-05T18:58:03.474Z,88.17
2023-03-05T19:00:31.954Z,88.05
2023-03-05T19:02:59.280Z,87.78
2023-03-05T19:05:26.960Z,88.54
2023-03-05T19:07:56.998Z,89.13
2023-03-05T19:10:24.000Z,89.13
2023-03-05T19:13:05.700Z,89.12
2023-03-05T19:15:32.852Z,89.46
2023-03-05T19:17:59.566Z,89.43
2023-03-05T19:20:26.558Z,88.70
2023-03-05T19:22:55.705Z,88.37
2023-03-05T19:25:22.954Z,88.82
2023-03-05T19:27:49.777Z,89.17
2023-03-05T19:30:17.094Z,89.38
2023-03-05T19:32:45.657Z,89.62
2023-03-05T19:35:15.924Z,89.24
2023-03-05T19:37:43.176Z,88.00
2023-03-05T19:40:10.476Z,88.51
2023-03-05T19:42:39.040Z,88.16
2023-03-05T19:45:06.888Z,88.08
2023-03-05T19:47:36.564Z,88.06
2023-03-05T19:50:04.518Z,87.88
2023-03-05T19:52:31.298Z,87.91
2023-03-05T19:54:57.951Z,88.10
2023-03-05T19:57:24.586Z,88.38
2023-03-05T19:59:52.822Z,88.70
2023-03-05T20:02:21.781Z,88.67
2023-03-05T20:04:49.729Z,88.27
2023-03-05T20:07:16.852Z,88.41
2023-03-05T20:09:43.608Z,88.51
2023-03-05T20:12:10.559Z,89.21
2023-03-05T20:14:37.677Z,88.99
2023-03-05T20:17:04.259Z,89.91
2023-03-05T20:19:30.862Z,89.49
2023-03-05T20:21:57.554Z,89.91
2023-03-05T20:24:24.372Z,90.92
2023-03-05T20:26:51.025Z,91.50
2023-03-05T20:29:18.861Z,91.76
2023-03-05T20:31:46.536Z,91.67
2023-03-05T20:34:16.027Z,93.03
2023-03-05T20:36:42.951Z,93.68
2023-03-05T20:39:10.207Z,93.91
2023-03-05T20:41:39.376Z,94.31
2023-03-05T20:44:07.368Z,94.48
2023-03-05T20:46:36.885Z,94.92
2023-03-05T20:49:04.732Z,94.06
2023-03-05T20:51:35.017Z,94.59
2023-03-05T20:54:07.966Z,94.98
2023-03-05T20:56:36.029Z,95.04
2023-03-05T20:59:04.966Z,94.79
2023-03-05T21:01:34.158Z,95.10
2023-03-05T21:04:01.572Z,95.68
2023-03-05T21:06:30.225Z,94.94
2023-03-05T21:08:57.451Z,95.18
2023-03-05T21:11:24.666Z,96.08
2023-03-05T21:13:51.422Z,95.75
2023-03-05T21:16:20.797Z,95.01
2023-03-05T21:18:48.071Z,94.92
2023-03-05T21:21:15.044Z,95.16
2023-03-05T21:23:41.610Z,95.45
2023-03-05T21:26:08.632Z,96.12
2023-03-05T21:28:35.262Z,94.96
2023-03-05T21:31:17.376Z,94.85
2023-03-05T21:33:44.598Z,94.94
2023-03-05T21:36:11.116Z,94.58
2023-03-05T21:38:37.753Z,94.00
2023-03-05T21:41:05.090Z,94.32
2023-03-05T21:43:32.722Z,93.77
2023-03-05T21:46:01.259Z,93.72
2023-03-05T21:48:28.155Z,93.93
2023-03-05T21:50:55.442Z,93.60
2023-03-05T21:53:22.737Z,94.11
2023-03-05T21:56:03.035Z,94.29
2023-03-05T21:58:34.513Z,94.52
2023-03-05T22:01:02.542Z,94.78
2023-03-05T22:03:29.897Z,96.39
2023-03-05T22:05:56.930Z,96.52
2023-03-05T22:08:24.456Z,96.50
2023-03-05T22:10:51.121Z,96.28
2023-03-05T22:13:20.204Z,97.51
2023-03-05T22:15:57.883Z,96.93
2023-03-05T22:18:27.864Z,96.65
2023-03-05T22:20:55.019Z,96.60
2023-03-05T22:23:23.966Z,96.17
2023-03-05T22:26:02.314Z,95.99
2023-03-05T22:28:29.201Z,95.90
2023-03-05T22:30:56.096Z,96.17
2023-03-05T22:33:23.416Z,96.95
2023-03-05T22:35:50.292Z,95.99
2023-03-05T22:38:16.985Z,95.82
2023-03-05T22:40:45.917Z,95.20
2023-03-05T22:43:13.416Z,96.19
2023-03-05T22:45:40.403Z,96.05
2023-03-05T22:48:19.732Z,96.57
2023-03-05T22:50:46.445Z,96.94
2023-03-05T22:53:13.046Z,96.87
2023-03-05T22:55:41.898Z,96.60
2023-03-05T22:58:08.763Z,96.92
2023-03-05T23:00:35.271Z,96.90
2023-03-05T23:03:02.108Z,98.03
2023-03-05T23:05:28.742Z,98.94
2023-03-05T23:07:55.467Z,98.72
2023-03-05T23:10:26.929Z,99.10
2023-03-05T23:12:55.242Z,99.55
2023-03-05T23:15:34.516Z,99.63
2023-03-05T23:18:01.455Z,99.77
2023-03-05T23:20:31.034Z,99.57
2023-03-05T23:22:58.314Z,99.98
2023-03-05T23:25:28.574Z,99.99
2023-03-05T23:27:55.439Z,100.00
2023-03-05T23:30:23.374Z,100.00
2023-03-05T23:32:57.183Z,100.00
2023-03-05T23:35:29.772Z,100.00
2023-03-05T23:37:59.128Z,100.00
2023-03-05T23:40:28.937Z,100.00
2023-03-05T23:42:55.694Z,100.00
2023-03-05T23:45:23.668Z,100.00
2023-03-05T23:47:51.374Z,100.00
2023-03-05T23:50:23.535Z,100.00
2023-03-05T23:52:51.068Z,100.00
2023-03-05T23:55:32.811Z,100.00
2023-03-05T23:57:59.924Z,100.00
